Time;durP1;ratioP1;P1;durP2;ratioP2;P2;SDS_P1;SDS_P2;PMS_P1;PMS_P2;Temp;Humidity;BMP_temperature;BMP_pressure;BME280_temperature;BME280_humidity;BME280_pressure;Samples;Min_cycle;Max_cycle;Signal;HPM_P1;HPM_P2
2021/12/10 00:00:17;;;;;;;;;1.00;0.00;;;;;7.39;82.85;98760.72;5076836;28;45529;-77
2021/12/10 00:02:46;;;;;;;;;0.00;0.00;;;;;7.40;82.87;98736.28;5076720;28;46280;-78
2021/12/10 00:05:16;;;;;;;;;0.00;0.00;;;;;7.34;82.87;98723.00;5076925;28;45573;-78
2021/12/10 00:07:43;;;;;;;;;0.00;0.00;;;;;7.30;83.01;98691.19;5077443;28;45543;-79
2021/12/10 00:10:13;;;;;;;;;0.75;0.00;;;;;7.37;83.01;98699.28;5076822;28;45559;-78
2021/12/10 00:12:49;;;;;;;;;0.25;0.00;;;;;7.36;82.90;98682.00;5077168;27;46555;-77
2021/12/10 00:15:14;;;;;;;;;0.00;0.00;;;;;7.34;83.01;98671.72;5075622;28;45643;-77
2021/12/10 00:17:40;;;;;;;;;0.00;0.00;;;;;7.35;83.01;98672.53;5077650;28;45863;-79
2021/12/10 00:20:07;;;;;;;;;0.00;0.00;;;;;7.34;83.02;98660.50;5081811;27;45514;-77
2021/12/10 00:22:49;;;;;;;;;0.50;0.25;;;;;7.34;83.13;98650.06;5080767;28;47393;-78
2021/12/10 00:25:19;;;;;;;;;0.00;0.00;;;;;7.33;82.92;98628.41;5080460;28;45827;-77
2021/12/10 00:27:48;;;;;;;;;0.00;0.00;;;;;7.34;83.12;98585.75;5077159;28;45571;-76
2021/12/10 00:30:18;;;;;;;;;0.75;0.00;;;;;7.34;83.40;98562.31;5076765;28;45570;-76
2021/12/10 00:32:50;;;;;;;;;0.00;0.00;;;;;7.33;83.07;98552.88;5075104;28;47129;-78
2021/12/10 00:35:25;;;;;;;;;1.00;0.00;;;;;7.32;82.83;98542.59;5076680;28;45592;-78
2021/12/10 00:37:50;;;;;;;;;0.00;0.00;;;;;7.30;83.41;98542.72;5077031;28;45514;-78
2021/12/10 00:40:19;;;;;;;;;0.00;0.00;;;;;7.29;83.09;98566.31;5076738;28;46479;-79
2021/12/10 00:42:46;;;;;;;;;0.00;0.00;;;;;7.28;83.23;98580.31;5077398;28;46040;-77
2021/12/10 00:45:14;;;;;;;;;0.00;0.00;;;;;7.27;83.06;98581.25;5081580;28;45506;-78
2021/12/10 00:47:40;;;;;;;;;0.00;0.00;;;;;7.23;83.17;98567.69;5081384;28;45637;-77
2021/12/10 00:50:10;;;;;;;;;0.00;0.00;;;;;7.28;83.17;98555.09;5081467;28;46251;-77
2021/12/10 00:52:36;;;;;;;;;1.00;0.00;;;;;7.28;83.16;98536.03;5079333;28;46149;-78
2021/12/10 00:55:02;;;;;;;;;0.00;0.00;;;;;7.19;83.04;98524.66;5077053;28;45567;-78
2021/12/10 00:57:30;;;;;;;;;0.00;0.00;;;;;7.27;83.31;98529.16;5109237;27;45700;-77
2021/12/10 00:59:55;;;;;;;;;0.00;0.00;;;;;7.25;83.16;98516.28;5075928;28;46443;-77
2021/12/10 01:02:23;;;;;;;;;0.00;0.00;;;;;7.24;83.04;98504.22;5075919;28;45537;-75
2021/12/10 01:04:51;;;;;;;;;0.00;0.00;;;;;7.23;83.04;98484.38;5076217;28;45862;-77
2021/12/10 01:07:22;;;;;;;;;0.00;0.00;;;;;7.23;83.28;98470.53;5076068;28;45717;-78
2021/12/10 01:09:50;;;;;;;;;0.00;0.00;;;;;7.18;83.31;98447.50;5075875;28;45885;-77
2021/12/10 01:12:22;;;;;;;;;0.00;0.00;;;;;7.14;83.14;98440.94;5075917;28;45958;-77
2021/12/10 01:24:19;;;;;;;;;0.00;0.00;;;;;7.14;83.42;98417.50;5013357;28;46118;-77
2021/12/10 01:29:21;;;;;;;;;0.50;0.00;;;;;7.06;83.42;98389.59;5050068;27;45687;-77
2021/12/10 01:31:46;;;;;;;;;0.00;0.00;;;;;7.17;83.45;98414.63;5075457;28;45634;-77
2021/12/10 01:34:12;;;;;;;;;0.00;0.00;;;;;7.16;83.49;98415.59;5075022;28;45591;-77
2021/12/10 01:36:39;;;;;;;;;0.00;0.00;;;;;7.17;83.66;98409.41;5076084;28;45672;-77
2021/12/10 01:39:08;;;;;;;;;0.00;0.00;;;;;7.15;83.47;98404.34;5076148;28;45725;-78
2021/12/10 01:41:38;;;;;;;;;1.00;0.00;;;;;7.09;83.68;98393.66;5076550;28;46095;-77
2021/12/10 01:44:14;;;;;;;;;0.00;0.00;;;;;7.14;83.43;98383.66;5075865;28;46213;-78
2021/12/10 01:46:40;;;;;;;;;0.00;0.00;;;;;7.13;83.68;98384.59;5074057;28;45614;-77
2021/12/10 01:49:09;;;;;;;;;0.00;0.00;;;;;7.09;83.55;98378.03;5076321;28;45664;-78
2021/12/10 01:51:37;;;;;;;;;0.00;0.00;;;;;7.11;83.44;98363.94;5075344;28;46452;-77
2021/12/10 01:54:21;;;;;;;;;0.00;0.00;;;;;7.11;83.50;98369.16;5075873;28;46068;-77
2021/12/10 01:56:49;;;;;;;;;0.00;0.00;;;;;7.08;83.77;98371.19;5075491;28;45580;-77
2021/12/10 01:59:17;;;;;;;;;0.00;0.00;;;;;7.08;83.47;98365.97;5075463;28;45699;-77
2021/12/10 02:01:50;;;;;;;;;0.00;0.00;;;;;7.07;83.50;98359.97;5075500;28;46590;-78
2021/12/10 02:04:18;;;;;;;;;0.00;0.00;;;;;7.06;83.64;98358.34;5073848;28;47470;-75
2021/12/10 02:06:44;;;;;;;;;0.00;0.00;;;;;7.05;83.71;98346.28;5075683;28;45737;-79
2021/12/10 02:09:13;;;;;;;;;0.50;0.00;;;;;7.02;83.78;98338.75;5075880;28;45719;-78
2021/12/10 02:11:39;;;;;;;;;0.00;0.00;;;;;7.05;83.63;98337.66;5075735;28;45727;-78
2021/12/10 02:14:06;;;;;;;;;0.00;0.00;;;;;7.04;83.96;98336.81;5074539;28;47152;-77
2021/12/10 02:16:32;;;;;;;;;0.00;0.00;;;;;7.06;83.82;98331.47;5078444;28;45689;-77
2021/12/10 02:18:58;;;;;;;;;0.00;0.00;;;;;7.05;83.70;98320.25;5080011;28;45751;-77
2021/12/10 02:21:25;;;;;;;;;0.00;0.00;;;;;7.01;83.88;98311.09;5079286;28;46459;-77
2021/12/10 02:23:57;;;;;;;;;0.50;0.00;;;;;7.05;83.91;98302.03;5079494;28;46355;-76
2021/12/10 02:26:31;;;;;;;;;0.00;0.00;;;;;6.87;83.83;98275.09;5075594;28;45532;-78
2021/12/10 02:28:57;;;;;;;;;0.00;0.00;;;;;7.04;83.79;98297.78;5075690;28;45545;-77
2021/12/10 02:31:24;;;;;;;;;0.00;0.00;;;;;7.06;83.85;98308.06;5073394;28;47023;-77
2021/12/10 02:33:50;;;;;;;;;0.00;0.00;;;;;7.06;83.95;98306.28;5077537;28;45623;-78
2021/12/10 02:36:15;;;;;;;;;0.00;0.00;;;;;7.01;83.79;98303.28;5081652;28;45590;-78
2021/12/10 02:38:46;;;;;;;;;0.00;0.00;;;;;7.08;83.82;98316.53;5084601;28;45797;-78
2021/12/10 02:41:13;;;;;;;;;0.00;0.00;;;;;7.10;84.07;98323.25;5090073;28;46557;-76
2021/12/10 02:43:39;;;;;;;;;0.00;0.00;;;;;7.09;83.89;98299.94;5091809;28;47155;-77
2021/12/10 02:46:05;;;;;;;;;0.00;0.00;;;;;7.14;83.74;98295.94;5098169;28;45650;-76
2021/12/10 02:48:30;;;;;;;;;0.00;0.00;;;;;7.14;84.06;98282.09;5097858;28;44961;-77
2021/12/10 02:50:57;;;;;;;;;0.00;0.00;;;;;7.18;84.48;98300.88;5098971;28;46560;-78
2021/12/10 02:53:27;;;;;;;;;0.00;0.00;;;;;7.14;84.09;98290.75;5091525;28;48122;-77
2021/12/10 02:55:54;;;;;;;;;0.00;0.00;;;;;7.17;84.19;98284.44;5080332;28;45511;-78
2021/12/10 02:58:20;;;;;;;;;0.00;0.00;;;;;7.19;84.01;98274.69;5078811;28;45644;-77
2021/12/10 03:01:03;;;;;;;;;0.00;0.00;;;;;7.21;84.01;98259.75;5078139;28;45614;-76
2021/12/10 03:03:28;;;;;;;;;0.00;0.00;;;;;7.15;84.12;98258.53;5078189;28;45639;-77
2021/12/10 03:05:54;;;;;;;;;0.00;0.00;;;;;7.23;84.29;98263.03;5078219;28;45722;-79
2021/12/10 03:08:19;;;;;;;;;0.00;0.00;;;;;7.22;84.01;98266.59;5078150;28;45629;-76
2021/12/10 03:10:46;;;;;;;;;0.00;0.00;;;;;7.29;84.27;98269.44;5079532;28;46261;-79
2021/12/10 03:13:12;;;;;;;;;0.00;0.00;;;;;7.31;84.27;98270.09;5078966;28;45633;-78
2021/12/10 03:15:38;;;;;;;;;0.00;0.00;;;;;7.34;84.12;98265.41;5078342;28;45547;-77
2021/12/10 03:18:07;;;;;;;;;0.00;0.00;;;;;7.37;84.08;98262.53;5077706;28;45596;-78
2021/12/10 03:20:33;;;;;;;;;0.00;0.00;;;;;7.36;84.11;98276.50;5077981;28;46583;-76
2021/12/10 03:23:00;;;;;;;;;0.00;0.00;;;;;7.32;84.15;98271.75;5078217;28;45946;-78
2021/12/10 03:25:26;;;;;;;;;0.00;0.00;;;;;7.35;84.31;98267.03;5077815;28;45623;-78
2021/12/10 03:27:51;;;;;;;;;0.00;0.00;;;;;7.42;84.43;98277.72;5076748;28;45870;-79
2021/12/10 03:30:21;;;;;;;;;0.00;0.00;;;;;7.46;84.62;98282.47;5077669;28;45679;-78
2021/12/10 03:36:09;;;;;;;;;0.00;0.00;;;;;7.46;85.17;98284.25;5077812;28;45632;-78
2021/12/10 03:38:37;;;;;;;;;0.00;0.00;;;;;7.52;85.16;98291.50;5078018;27;45814;-78
2021/12/10 03:41:03;;;;;;;;;0.00;0.00;;;;;7.45;85.46;98275.63;5077652;28;45643;-77
2021/12/10 03:43:29;;;;;;;;;0.00;0.00;;;;;7.62;85.83;98304.44;5077933;28;45853;-78
2021/12/10 03:45:57;;;;;;;;;0.00;0.00;;;;;7.62;85.75;98288.81;5077984;28;45684;-79
2021/12/10 03:48:36;;;;;;;;;0.00;0.00;;;;;7.57;85.84;98279.66;5079317;28;45682;-78
2021/12/10 03:51:05;;;;;;;;;0.00;0.00;;;;;7.76;86.13;98291.75;5082209;28;45690;-79
2021/12/10 03:53:31;;;;;;;;;0.00;0.00;;;;;7.84;86.23;98304.03;5080037;28;46067;-78
2021/12/10 03:56:00;;;;;;;;;0.50;0.00;;;;;7.92;86.33;98296.28;5081886;28;45760;-79
2021/12/10 03:58:27;;;;;;;;;0.00;0.00;;;;;7.97;86.87;98304.47;5085204;28;45690;-76
2021/12/10 04:00:55;;;;;;;;;0.50;0.00;;;;;8.05;86.45;98298.50;5088050;27;45718;-77
2021/12/10 04:03:23;;;;;;;;;1.00;0.00;;;;;8.13;86.65;98303.81;5086900;28;46243;-78
2021/12/10 04:05:48;;;;;;;;;1.00;1.00;;;;;8.21;86.88;98329.94;5079665;27;45694;-78
2021/12/10 04:08:14;;;;;;;;;1.00;0.00;;;;;8.25;86.92;98303.44;5077949;28;45682;-78
2021/12/10 04:10:40;;;;;;;;;1.00;0.00;;;;;8.31;86.85;98286.38;5077092;28;46351;-77
2021/12/10 04:13:06;;;;;;;;;0.00;0.00;;;;;8.40;86.92;98296.72;5077358;28;46082;-78
2021/12/10 04:15:34;;;;;;;;;0.75;0.00;;;;;8.47;87.15;98327.44;5077329;28;45675;-78
2021/12/10 04:21:22;;;;;;;;;0.50;0.50;;;;;8.60;86.92;98296.50;5076747;28;46018;-77
2021/12/10 04:23:49;;;;;;;;;1.00;1.00;;;;;8.69;86.87;98304.22;5077268;28;46177;-76
2021/12/10 04:26:19;;;;;;;;;0.00;0.00;;;;;8.75;87.00;98306.22;5077019;28;45653;-77
2021/12/10 04:28:45;;;;;;;;;0.25;0.25;;;;;8.75;86.85;98294.97;5076681;28;45581;-77
2021/12/10 04:31:10;;;;;;;;;1.00;0.00;;;;;8.75;86.78;98303.63;5076921;28;45707;-77
2021/12/10 04:33:36;;;;;;;;;2.50;1.00;;;;;8.89;86.90;98294.41;5076868;28;46168;-78
2021/12/10 04:36:03;;;;;;;;;1.00;0.00;;;;;8.94;86.51;98309.59;5076918;28;45544;-77
2021/12/10 04:38:33;;;;;;;;;1.00;0.25;;;;;8.98;86.67;98314.38;5076752;28;45549;-78
2021/12/10 04:41:01;;;;;;;;;1.00;1.00;;;;;9.04;86.47;98323.38;5076471;28;46453;-78
2021/12/10 04:43:29;;;;;;;;;3.00;2.00;;;;;9.06;86.51;98316.22;5076839;28;46172;-77
2021/12/10 04:45:56;;;;;;;;;1.00;1.00;;;;;8.99;86.20;98297.72;5109136;27;45809;-79
2021/12/10 04:51:52;;;;;;;;;5.00;2.00;;;;;9.12;86.23;98334.66;5076815;28;46021;-78
2021/12/10 04:54:21;;;;;;;;;1.50;0.75;;;;;9.17;85.72;98353.34;5076987;28;46408;-77
2021/12/10 04:56:49;;;;;;;;;1.75;1.00;;;;;9.21;85.24;98335.53;5076989;28;45509;-79
2021/12/10 04:59:17;;;;;;;;;0.25;0.25;;;;;9.24;85.48;98332.59;5076576;28;45739;-79
2021/12/10 05:01:44;;;;;;;;;2.00;1.75;;;;;9.22;85.15;98331.97;5076807;27;46238;-78
2021/12/10 05:04:11;;;;;;;;;4.75;2.00;;;;;9.23;85.02;98317.94;5076746;28;45516;-77
2021/12/10 05:06:36;;;;;;;;;1.25;1.00;;;;;9.28;85.06;98326.13;5074676;28;45916;-78
2021/12/10 05:09:05;;;;;;;;;2.00;1.00;;;;;9.29;84.67;98359.06;5075795;28;45488;-80
2021/12/10 05:11:30;;;;;;;;;1.25;1.00;;;;;9.26;84.39;98338.50;5076211;28;47548;-78
2021/12/10 05:13:56;;;;;;;;;1.00;1.00;;;;;9.30;84.40;98359.91;5076397;28;45581;-79
2021/12/10 05:16:25;;;;;;;;;2.00;1.00;;;;;9.33;84.01;98346.53;5076321;28;45758;-79
2021/12/10 05:18:58;;;;;;;;;2.50;1.75;;;;;9.35;83.83;98381.16;5076107;28;45598;-78
2021/12/10 05:21:26;;;;;;;;;1.00;0.25;;;;;9.35;83.56;98381.16;5078117;28;47841;-78
2021/12/10 05:23:52;;;;;;;;;5.75;1.00;;;;;9.19;83.11;98340.09;5078551;28;47671;-76
2021/12/10 05:26:18;;;;;;;;;1.75;0.50;;;;;9.37;81.87;98389.66;5078957;28;45593;-78
2021/12/10 05:28:43;;;;;;;;;2.00;1.00;;;;;9.36;83.09;98372.34;5078188;28;45707;-76
2021/12/10 05:31:09;;;;;;;;;4.75;2.25;;;;;9.22;82.56;98369.34;5076732;28;45559;-78
2021/12/10 05:36:57;;;;;;;;;2.00;1.00;;;;;9.28;83.66;98391.44;5075900;28;45541;-79
2021/12/10 05:39:23;;;;;;;;;1.75;1.00;;;;;9.24;83.85;98395.31;5075654;28;45618;-78
2021/12/10 05:41:50;;;;;;;;;2.25;0.25;;;;;9.26;84.42;98402.03;5075450;28;46306;-77
2021/12/10 05:44:16;;;;;;;;;2.00;1.00;;;;;9.24;83.74;98400.53;5075317;28;46157;-76
2021/12/10 05:46:42;;;;;;;;;2.00;1.00;;;;;9.21;84.00;98412.13;5075448;28;45548;-78
2021/12/10 05:49:08;;;;;;;;;2.00;1.00;;;;;9.20;84.33;98425.31;5075600;28;45736;-78
2021/12/10 05:51:34;;;;;;;;;0.00;0.00;;;;;9.13;83.96;98390.34;5075265;28;45521;-78
2021/12/10 05:54:00;;;;;;;;;0.75;0.75;;;;;9.18;83.96;98428.09;5073831;28;47024;-77
2021/12/10 05:56:25;;;;;;;;;5.75;1.00;;;;;9.18;83.97;98416.81;5075277;28;45850;-79
2021/12/10 05:58:51;;;;;;;;;1.00;1.00;;;;;9.17;84.25;98434.31;5075295;28;45491;-78
2021/12/10 06:01:18;;;;;;;;;1.50;0.00;;;;;9.16;84.04;98431.84;5075292;28;45486;-77
2021/12/10 06:07:06;;;;;;;;;2.50;1.00;;;;;9.14;83.88;98434.59;5075152;28;45806;-77
2021/12/10 06:09:32;;;;;;;;;1.75;0.50;;;;;9.12;83.54;98433.91;5074984;28;45744;-78
2021/12/10 06:11:58;;;;;;;;;3.75;2.00;;;;;9.09;83.40;98449.91;5074966;28;45523;-78
2021/12/10 06:14:24;;;;;;;;;3.00;1.00;;;;;9.10;83.46;98477.69;5075216;28;46384;-77
2021/12/10 06:16:52;;;;;;;;;2.00;1.00;;;;;9.10;83.46;98464.63;5108106;27;45706;-78
2021/12/10 06:19:18;;;;;;;;;3.50;1.00;;;;;9.06;83.74;98463.28;5074488;28;45485;-78
2021/12/10 06:21:44;;;;;;;;;1.00;1.00;;;;;8.95;84.44;98505.31;5075256;28;45744;-76
2021/12/10 06:24:10;;;;;;;;;2.00;1.00;;;;;8.98;84.21;98478.06;5074950;28;45639;-76
2021/12/10 06:26:35;;;;;;;;;1.50;1.00;;;;;8.93;84.93;98470.69;5074834;28;45514;-78
2021/12/10 06:29:03;;;;;;;;;1.50;1.00;;;;;8.89;85.01;98479.81;5074809;28;45888;-77
2021/12/10 06:31:29;;;;;;;;;1.25;1.00;;;;;8.84;85.69;98484.66;5075040;28;45583;-77
2021/12/10 06:37:17;;;;;;;;;2.25;1.00;;;;;8.69;86.11;98494.78;5074747;28;45513;-77
2021/12/10 06:39:42;;;;;;;;;1.00;0.00;;;;;8.62;86.55;98483.31;5074935;28;45704;-78
2021/12/10 06:42:08;;;;;;;;;3.00;2.00;;;;;8.63;86.60;98499.81;5075241;28;45601;-79
2021/12/10 06:44:33;;;;;;;;;3.00;0.75;;;;;8.58;87.05;98507.25;5075034;28;45989;-76
2021/12/10 06:46:58;;;;;;;;;0.00;0.00;;;;;8.53;87.30;98519.94;5075254;28;45602;-77
2021/12/10 06:49:24;;;;;;;;;1.25;0.00;;;;;8.49;87.77;98523.78;5075167;28;45783;-77
2021/12/10 06:51:50;;;;;;;;;0.25;0.25;;;;;8.47;88.51;98559.66;5075252;28;45620;-77
2021/12/10 06:54:16;;;;;;;;;0.00;0.00;;;;;8.39;88.12;98529.06;5076430;28;45645;-78
2021/12/10 06:56:41;;;;;;;;;2.00;1.00;;;;;8.31;88.06;98529.78;5076576;28;45570;-78
2021/12/10 06:59:09;;;;;;;;;2.00;0.25;;;;;8.25;88.54;98564.25;5076680;28;45836;-77
2021/12/10 07:07:46;;;;;;;;;0.50;0.00;;;;;8.15;89.36;98573.91;5074866;28;45728;-78
2021/12/10 07:10:14;;;;;;;;;1.00;0.25;;;;;8.04;89.14;98579.31;5074382;28;45827;-78
2021/12/10 07:12:42;;;;;;;;;0.25;0.00;;;;;8.09;89.12;98597.97;5074482;28;46524;-76
2021/12/10 07:15:10;;;;;;;;;0.00;0.00;;;;;8.05;89.36;98593.16;5074663;28;46391;-78
2021/12/10 07:17:41;;;;;;;;;0.00;0.00;;;;;8.03;89.77;98608.97;5074733;28;45481;-79
2021/12/10 07:20:08;;;;;;;;;0.00;0.00;;;;;8.02;89.36;98620.34;5074147;28;45535;-78
2021/12/10 07:22:35;;;;;;;;;1.25;0.00;;;;;8.00;89.42;98646.56;5106894;27;48627;-80
2021/12/10 07:25:03;;;;;;;;;1.00;0.00;;;;;8.00;89.54;98633.53;5074379;28;45855;-77
2021/12/10 07:27:29;;;;;;;;;0.00;0.00;;;;;8.00;89.48;98653.56;5073653;28;45694;-77
2021/12/10 07:29:54;;;;;;;;;1.00;0.00;;;;;7.98;89.67;98619.81;5074380;28;45798;-79
2021/12/10 07:32:20;;;;;;;;;0.00;0.00;;;;;7.91;89.84;98625.72;5077195;28;46656;-77
2021/12/10 07:34:45;;;;;;;;;0.00;0.00;;;;;7.86;89.72;98631.38;5077977;28;45721;-77
2021/12/10 07:37:10;;;;;;;;;1.00;1.00;;;;;7.86;89.77;98648.78;5082756;28;45875;-79
2021/12/10 07:39:37;;;;;;;;;0.25;0.00;;;;;7.86;89.93;98677.47;5086878;28;45320;-77
2021/12/10 07:42:07;;;;;;;;;0.00;0.00;;;;;7.84;89.82;98698.44;5083779;28;46338;-79
2021/12/10 07:44:32;;;;;;;;;1.00;0.00;;;;;7.77;90.67;98704.38;5077375;28;46028;-78
2021/12/10 07:47:01;;;;;;;;;0.25;0.25;;;;;7.70;91.16;98675.44;5077515;28;45560;-76
2021/12/10 07:49:30;;;;;;;;;0.00;0.00;;;;;7.72;91.89;98680.50;5077556;28;45647;-77
2021/12/10 07:51:57;;;;;;;;;0.00;0.00;;;;;7.66;92.27;98710.56;5076938;28;47454;-79
2021/12/10 07:54:23;;;;;;;;;0.00;0.00;;;;;7.51;92.77;98681.47;5110030;27;47569;-77
2021/12/10 07:56:49;;;;;;;;;0.00;0.00;;;;;7.62;93.06;98710.94;5077101;28;45698;-77
2021/12/10 07:59:14;;;;;;;;;3.00;0.00;;;;;7.57;93.04;98704.38;5077577;28;45557;-77
2021/12/10 08:01:40;;;;;;;;;0.00;0.00;;;;;7.54;93.44;98691.63;5077169;28;46542;-77
2021/12/10 08:07:27;;;;;;;;;0.75;0.00;;;;;7.51;93.97;98732.75;5077211;28;45723;-75
2021/12/10 08:09:52;;;;;;;;;0.00;0.00;;;;;7.52;93.97;98742.22;5076739;28;45878;-74
2021/12/10 08:12:18;;;;;;;;;0.75;0.50;;;;;7.49;94.25;98745.09;5075536;28;46782;-79
2021/12/10 08:14:46;;;;;;;;;0.75;0.00;;;;;7.49;94.46;98748.53;5076767;28;47139;-76
2021/12/10 08:20:34;;;;;;;;;0.00;0.00;;;;;7.44;94.84;98773.34;5076867;28;45749;-79
2021/12/10 08:23:01;;;;;;;;;0.00;0.00;;;;;7.41;94.83;98768.38;5110995;27;47330;-78
2021/12/10 08:25:29;;;;;;;;;1.25;0.00;;;;;7.35;94.93;98769.75;5079297;28;46260;-78
2021/12/10 08:27:56;;;;;;;;;0.00;0.00;;;;;7.39;94.99;98819.81;5078981;28;45815;-79
2021/12/10 08:30:24;;;;;;;;;0.00;0.00;;;;;7.33;95.00;98805.53;5078926;28;45776;-77
2021/12/10 08:36:11;;;;;;;;;0.25;0.00;;;;;7.25;95.31;98773.28;5076422;28;45844;-76
2021/12/10 08:38:38;;;;;;;;;0.00;0.00;;;;;7.30;95.48;98800.56;5075821;27;45630;-74
2021/12/10 08:41:09;;;;;;;;;0.25;0.00;;;;;7.29;95.46;98827.56;5075775;28;45705;-72
2021/12/10 08:43:34;;;;;;;;;0.50;0.00;;;;;7.29;95.44;98824.97;5076168;28;46441;-76
2021/12/10 08:46:01;;;;;;;;;0.00;0.00;;;;;7.28;95.59;98852.00;5074772;28;47151;-75
2021/12/10 08:51:59;;;;;;;;;0.00;0.00;;;;;7.22;95.29;98807.41;5075734;28;45906;-81
2021/12/10 08:54:30;;;;;;;;;0.00;0.00;;;;;7.18;95.45;98849.31;5075493;28;46025;-80
2021/12/10 08:56:57;;;;;;;;;1.00;0.00;;;;;7.20;95.59;98840.56;5076321;28;47099;-78
2021/12/10 08:59:24;;;;;;;;;1.00;0.00;;;;;7.16;95.50;98829.59;5076113;28;45762;-74
2021/12/10 09:01:56;;;;;;;;;0.00;0.00;;;;;7.20;95.31;98841.38;5075805;28;45867;-76
2021/12/10 09:07:44;;;;;;;;;0.00;0.00;;;;;7.18;95.59;98866.72;5075524;28;45770;-74
2021/12/10 09:10:13;;;;;;;;;0.00;0.00;;;;;7.18;95.46;98863.31;5075700;28;45655;-75
2021/12/10 09:12:40;;;;;;;;;0.00;0.00;;;;;7.18;95.30;98896.19;5075708;28;45475;-78
2021/12/10 09:15:09;;;;;;;;;0.00;0.00;;;;;7.22;95.33;98859.50;5075686;28;46577;-74
2021/12/10 09:17:39;;;;;;;;;0.00;0.00;;;;;7.21;95.08;98887.31;5075148;28;47187;-74
2021/12/10 09:20:25;;;;;;;;;1.00;0.00;;;;;7.21;95.24;98902.94;5075066;28;45667;-76
2021/12/10 09:22:53;;;;;;;;;2.00;1.00;;;;;7.21;95.30;98899.50;5075571;27;45527;-77
2021/12/10 09:25:20;;;;;;;;;1.25;0.00;;;;;7.25;95.49;98904.31;5075403;28;46908;-76
2021/12/10 09:27:46;;;;;;;;;0.00;0.00;;;;;7.31;95.44;98908.19;5075112;28;45684;-76
2021/12/10 09:30:15;;;;;;;;;0.00;0.00;;;;;7.27;95.47;98917.22;5075419;28;45610;-77
2021/12/10 09:32:41;;;;;;;;;1.00;0.75;;;;;7.29;95.52;98910.91;5075124;27;45739;-73
2021/12/10 09:35:09;;;;;;;;;0.50;0.50;;;;;7.39;95.49;98930.06;5075135;28;45834;-76
2021/12/10 09:37:37;;;;;;;;;2.75;0.75;;;;;7.42;95.47;98918.53;5075326;28;45625;-76
2021/12/10 09:40:12;;;;;;;;;1.50;0.00;;;;;7.45;95.39;98931.31;5075069;28;45685;-77
2021/12/10 09:42:39;;;;;;;;;0.50;0.50;;;;;7.44;95.49;98907.03;5075715;28;45886;-81
2021/12/10 09:45:07;;;;;;;;;0.75;0.00;;;;;7.52;95.00;98977.53;5075075;28;46472;-77
2021/12/10 09:47:33;;;;;;;;;1.50;0.75;;;;;7.52;95.08;98950.66;5075572;28;46518;-76
2021/12/10 09:53:22;;;;;;;;;1.00;1.00;;;;;7.60;95.17;98971.69;5075173;28;45513;-76
2021/12/10 09:55:48;;;;;;;;;1.00;1.00;;;;;7.62;95.26;98953.28;5075680;28;45589;-76
2021/12/10 09:58:16;;;;;;;;;3.25;1.00;;;;;7.64;95.30;98952.22;5076306;28;46302;-78
2021/12/10 10:01:01;;;;;;;;;2.00;1.00;;;;;7.66;95.26;98955.53;5075493;28;45631;-76
2021/12/10 10:03:31;;;;;;;;;0.00;0.00;;;;;7.69;95.33;98947.44;5074600;27;46048;-76
2021/12/10 10:06:00;;;;;;;;;1.00;0.75;;;;;7.75;95.19;98977.38;5074440;28;47481;-78
2021/12/10 10:08:28;;;;;;;;;1.00;0.00;;;;;7.76;95.38;98948.56;5074400;28;46505;-77
2021/12/10 10:11:01;;;;;;;;;0.00;0.00;;;;;7.82;95.02;98963.69;5075722;28;45524;-76
2021/12/10 10:13:32;;;;;;;;;1.00;1.00;;;;;7.89;95.06;98977.00;5075804;28;45566;-77
2021/12/10 10:15:59;;;;;;;;;0.00;0.00;;;;;7.93;95.00;98976.63;5074686;28;47323;-80
2021/12/10 10:18:27;;;;;;;;;0.00;0.00;;;;;7.96;94.94;98984.16;5074106;28;46213;-75
2021/12/10 10:20:57;;;;;;;;;0.50;0.00;;;;;8.00;94.74;98987.31;5074728;28;45921;-75
2021/12/10 10:23:25;;;;;;;;;0.75;0.25;;;;;8.04;94.44;99020.03;5074782;28;45855;-77
2021/12/10 10:25:54;;;;;;;;;1.50;0.75;;;;;7.97;94.21;98991.03;5074698;28;46477;-77
2021/12/10 10:28:20;;;;;;;;;2.00;0.75;;;;;8.08;94.80;99010.97;5073987;27;46245;-77
2021/12/10 10:31:00;;;;;;;;;3.00;0.75;;;;;8.13;94.27;99003.56;5074573;27;45590;-78
2021/12/10 10:33:31;;;;;;;;;1.25;1.00;;;;;8.15;94.16;98998.22;5075329;28;45764;-77
2021/12/10 10:35:59;;;;;;;;;2.75;1.25;;;;;8.15;94.21;99001.63;5074639;28;46603;-74
2021/12/10 10:38:26;;;;;;;;;1.50;0.25;;;;;8.24;93.80;99033.94;5073835;28;46068;-76
2021/12/10 10:40:57;;;;;;;;;2.00;1.00;;;;;8.28;93.84;99019.66;5106832;27;45817;-77
2021/12/10 10:43:25;;;;;;;;;0.25;0.00;;;;;8.34;93.22;99053.91;5074204;27;45899;-74
2021/12/10 10:45:51;;;;;;;;;3.00;0.00;;;;;8.35;92.72;99032.09;5076257;27;45619;-75
2021/12/10 10:48:17;;;;;;;;;1.00;1.00;;;;;8.38;92.89;99070.13;5076204;28;45632;-75
2021/12/10 10:51:00;;;;;;;;;1.75;1.00;;;;;8.40;93.17;99034.28;5074012;28;45959;-76
2021/12/10 10:53:29;;;;;;;;;2.00;1.00;;;;;8.45;93.06;99036.50;5075003;28;45801;-77
2021/12/10 10:56:04;;;;;;;;;1.75;1.00;;;;;8.47;93.36;99079.78;5074338;28;45679;-81
2021/12/10 10:58:38;;;;;;;;;1.75;1.00;;;;;8.46;92.79;99040.75;5108112;27;46351;-78
2021/12/10 11:01:22;;;;;;;;;2.25;1.00;;;;;8.47;92.44;99051.06;5075210;28;45797;-76
2021/12/10 11:04:05;;;;;;;;;0.00;0.00;;;;;8.50;91.57;99058.63;5075932;28;45592;-78
2021/12/10 11:06:41;;;;;;;;;0.00;0.00;;;;;8.48;90.85;99049.25;5078457;28;47455;-75
2021/12/10 11:09:06;;;;;;;;;0.00;0.00;;;;;8.53;91.29;99049.72;5078939;28;46195;-75
2021/12/10 11:11:35;;;;;;;;;2.75;1.00;;;;;8.50;91.25;99057.78;5078631;28;45630;-76
2021/12/10 11:14:20;;;;;;;;;0.00;0.00;;;;;8.58;91.94;99064.00;5078346;28;45521;-76
2021/12/10 11:16:51;;;;;;;;;2.00;1.00;;;;;8.60;91.53;99059.47;5077081;28;46432;-74
2021/12/10 11:19:20;;;;;;;;;1.25;0.00;;;;;8.66;90.71;99060.72;5076622;28;46244;-75
2021/12/10 11:21:47;;;;;;;;;1.00;0.00;;;;;8.71;91.40;99129.00;5076750;28;45777;-77
2021/12/10 11:24:16;;;;;;;;;0.50;0.00;;;;;8.73;91.47;99080.09;5077002;28;45841;-78
2021/12/10 11:26:48;;;;;;;;;2.50;1.75;;;;;8.76;91.66;99096.31;5077381;28;46395;-75
2021/12/10 11:29:38;;;;;;;;;1.00;0.00;;;;;8.81;91.37;99108.97;5077040;28;47082;-76
2021/12/10 11:32:16;;;;;;;;;0.25;0.00;;;;;8.79;91.12;99090.00;5076975;27;45788;-77
2021/12/10 11:34:52;;;;;;;;;0.00;0.00;;;;;8.83;89.69;99107.88;5077080;28;45790;-77
2021/12/10 11:37:39;;;;;;;;;0.00;0.00;;;;;8.84;90.78;99101.72;5077041;28;47673;-74
2021/12/10 11:40:31;;;;;;;;;0.50;0.50;;;;;8.80;90.45;99115.97;5077145;28;46124;-77
2021/12/10 11:43:01;;;;;;;;;0.75;0.00;;;;;8.81;90.58;99162.00;5077202;28;45759;-74
2021/12/10 11:45:41;;;;;;;;;1.00;0.00;;;;;8.88;90.12;99114.47;5075520;28;45647;-78
2021/12/10 11:48:12;;;;;;;;;1.75;0.00;;;;;8.86;90.35;99112.00;5077118;28;45531;-78
2021/12/10 11:50:46;;;;;;;;;1.00;0.00;;;;;8.89;89.72;99113.53;5076727;28;47066;-76
2021/12/10 11:53:17;;;;;;;;;0.00;0.00;;;;;8.93;89.63;99099.22;5076662;28;45607;-77
2021/12/10 11:56:00;;;;;;;;;0.75;0.00;;;;;8.95;89.92;99118.22;5076983;28;45560;-77
2021/12/10 11:58:25;;;;;;;;;1.00;0.00;;;;;8.93;89.81;99122.72;5076428;28;47419;-76
2021/12/10 12:00:52;;;;;;;;;0.75;0.00;;;;;8.97;89.63;99130.16;5076428;28;46306;-77
2021/12/10 12:03:20;;;;;;;;;1.00;0.00;;;;;8.95;88.32;99149.56;5076512;28;45742;-76
2021/12/10 12:05:47;;;;;;;;;5.75;0.00;;;;;9.03;88.82;99152.31;5076816;28;45927;-78
2021/12/10 12:08:18;;;;;;;;;0.00;0.00;;;;;8.99;87.17;99154.38;5076595;28;45594;-77
2021/12/10 12:10:47;;;;;;;;;0.75;0.00;;;;;9.00;88.60;99156.03;5077003;28;46266;-77
2021/12/10 12:15:54;;;;;;;;;2.00;0.00;;;;;9.03;86.91;99170.59;5076692;28;45627;-78
2021/12/10 12:18:36;;;;;;;;;1.00;0.00;;;;;8.94;86.84;99189.69;5074560;28;47546;-76
2021/12/10 12:27:17;;;;;;;;;0.75;0.00;;;;;8.92;86.58;99200.25;5076158;28;45491;-78
2021/12/10 12:29:52;;;;;;;;;1.50;1.00;;;;;8.93;87.01;99207.13;5075784;28;46469;-75
2021/12/10 12:32:24;;;;;;;;;2.00;0.00;;;;;8.96;86.94;99214.69;5076047;28;47511;-75
2021/12/10 12:38:20;;;;;;;;;0.00;0.00;;;;;8.99;86.36;99197.94;5075974;28;45684;-77
2021/12/10 12:41:06;;;;;;;;;5.00;0.00;;;;;8.93;86.48;99224.59;5076124;28;47657;-79
2021/12/10 12:43:31;;;;;;;;;0.00;0.00;;;;;9.02;86.69;99239.47;5077816;28;47569;-78
2021/12/10 12:46:08;;;;;;;;;0.00;0.00;;;;;8.99;86.25;99209.22;5077580;28;45670;-79
2021/12/10 12:48:34;;;;;;;;;1.00;0.00;;;;;8.99;84.60;99224.88;5077141;28;45913;-76
2021/12/10 12:54:21;;;;;;;;;0.25;0.25;;;;;8.97;86.44;99247.69;5075681;28;46019;-76
2021/12/10 12:56:51;;;;;;;;;0.00;0.00;;;;;8.92;86.56;99236.00;5075866;27;45552;-78
2021/12/10 12:59:16;;;;;;;;;0.00;0.00;;;;;8.81;86.70;99253.41;5075733;27;45707;-77
2021/12/10 13:01:50;;;;;;;;;0.00;0.00;;;;;8.83;86.82;99230.63;5075448;28;46350;-76